Franklin, Indiana
Current Conditions -  °F | °C
As of 2:53 AM on Saturday 20 Dec 2014 (Local Time) from KGEZ Reporting Station
Overcast Overcast  
Wind Chill: 31°   Ceiling: 2500
Heat Index: 31°   Visibility: 9mi
Dew Point: 25°   Wind: 0mph
Humidity: 79%   Direction: NA
Pressure: 30.28"   Gusts: NA
Location:  39.48°N, 86.06°W
Report Text: KGEZ 200753Z AUTO 00000KT 9SM OVC025 M01/M04 A3028 RMK AO2 SLP261 T10061039
Loading
Personal Weather Stations






























Interactive Weather Map New forecast layout! Learn more

10-Day Weather Forecast

Advertisements
Track Severe Weather on mobile